sensor_id;sensor_type;location;lat;lon;timestamp;temperature;humidity
29345;DHT22;16339;48.748;2.222;2023-08-21T00:00:14;26.70;75.40
29345;DHT22;16339;48.748;2.222;2023-08-21T00:02:43;26.60;76.30
29345;DHT22;16339;48.748;2.222;2023-08-21T00:05:14;26.60;75.70
29345;DHT22;16339;48.748;2.222;2023-08-21T00:07:43;26.50;75.60
29345;DHT22;16339;48.748;2.222;2023-08-21T00:10:16;26.60;75.90
29345;DHT22;16339;48.748;2.222;2023-08-21T00:12:45;26.60;75.70
29345;DHT22;16339;48.748;2.222;2023-08-21T00:15:14;26.60;75.80
29345;DHT22;16339;48.748;2.222;2023-08-21T00:17:42;26.60;75.80
29345;DHT22;16339;48.748;2.222;2023-08-21T00:20:14;26.60;75.90
29345;DHT22;16339;48.748;2.222;2023-08-21T00:22:43;26.60;75.40
29345;DHT22;16339;48.748;2.222;2023-08-21T00:25:12;26.50;75.40
29345;DHT22;16339;48.748;2.222;2023-08-21T00:27:40;26.50;75.50
29345;DHT22;16339;48.748;2.222;2023-08-21T00:30:11;26.40;75.90
29345;DHT22;16339;48.748;2.222;2023-08-21T00:32:40;26.40;75.80
29345;DHT22;16339;48.748;2.222;2023-08-21T00:35:09;26.30;75.90
29345;DHT22;16339;48.748;2.222;2023-08-21T00:37:42;26.30;76.00
29345;DHT22;16339;48.748;2.222;2023-08-21T00:40:13;26.30;75.90
29345;DHT22;16339;48.748;2.222;2023-08-21T00:42:41;26.20;75.90
29345;DHT22;16339;48.748;2.222;2023-08-21T00:45:10;26.20;76.10
29345;DHT22;16339;48.748;2.222;2023-08-21T00:47:40;26.20;76.10
29345;DHT22;16339;48.748;2.222;2023-08-21T00:50:09;26.20;76.30
29345;DHT22;16339;48.748;2.222;2023-08-21T00:52:42;26.20;76.20
29345;DHT22;16339;48.748;2.222;2023-08-21T00:55:13;26.20;75.80
29345;DHT22;16339;48.748;2.222;2023-08-21T00:57:42;26.20;75.60
29345;DHT22;16339;48.748;2.222;2023-08-21T01:00:12;26.20;75.80
29345;DHT22;16339;48.748;2.222;2023-08-21T01:02:41;26.10;75.70
29345;DHT22;16339;48.748;2.222;2023-08-21T01:05:10;26.00;75.60
29345;DHT22;16339;48.748;2.222;2023-08-21T01:07:47;26.00;75.80
29345;DHT22;16339;48.748;2.222;2023-08-21T01:10:22;25.90;76.00
29345;DHT22;16339;48.748;2.222;2023-08-21T01:12:59;26.00;76.30
29345;DHT22;16339;48.748;2.222;2023-08-21T01:15:28;25.90;76.00
29345;DHT22;16339;48.748;2.222;2023-08-21T01:17:57;25.90;75.80
29345;DHT22;16339;48.748;2.222;2023-08-21T01:20:27;25.90;76.10
29345;DHT22;16339;48.748;2.222;2023-08-21T01:23:04;25.80;76.00
29345;DHT22;16339;48.748;2.222;2023-08-21T01:25:35;25.80;76.00
29345;DHT22;16339;48.748;2.222;2023-08-21T01:28:04;25.80;76.10
29345;DHT22;16339;48.748;2.222;2023-08-21T01:30:34;25.70;75.90
29345;DHT22;16339;48.748;2.222;2023-08-21T01:33:06;25.70;76.00
29345;DHT22;16339;48.748;2.222;2023-08-21T01:35:39;25.70;76.30
29345;DHT22;16339;48.748;2.222;2023-08-21T01:38:08;25.70;76.30
29345;DHT22;16339;48.748;2.222;2023-08-21T01:40:40;25.70;76.80
29345;DHT22;16339;48.748;2.222;2023-08-21T01:43:10;25.70;75.80
29345;DHT22;16339;48.748;2.222;2023-08-21T01:45:39;25.70;76.00
29345;DHT22;16339;48.748;2.222;2023-08-21T01:48:08;25.60;77.00
29345;DHT22;16339;48.748;2.222;2023-08-21T01:50:37;25.60;76.40
29345;DHT22;16339;48.748;2.222;2023-08-21T01:53:05;25.60;76.00
29345;DHT22;16339;48.748;2.222;2023-08-21T01:55:34;25.60;76.30
29345;DHT22;16339;48.748;2.222;2023-08-21T01:58:06;25.60;76.10
29345;DHT22;16339;48.748;2.222;2023-08-21T02:00:34;25.60;76.30
29345;DHT22;16339;48.748;2.222;2023-08-21T02:03:03;25.50;76.20
29345;DHT22;16339;48.748;2.222;2023-08-21T02:05:37;25.50;76.00
29345;DHT22;16339;48.748;2.222;2023-08-21T02:08:11;25.50;76.10
29345;DHT22;16339;48.748;2.222;2023-08-21T02:10:48;25.40;76.20
29345;DHT22;16339;48.748;2.222;2023-08-21T02:13:19;25.40;76.50
29345;DHT22;16339;48.748;2.222;2023-08-21T02:15:48;25.40;76.70
29345;DHT22;16339;48.748;2.222;2023-08-21T02:18:17;25.40;77.30
29345;DHT22;16339;48.748;2.222;2023-08-21T02:20:47;25.40;77.80
29345;DHT22;16339;48.748;2.222;2023-08-21T02:23:16;25.40;78.20
29345;DHT22;16339;48.748;2.222;2023-08-21T02:25:45;25.40;78.20
29345;DHT22;16339;48.748;2.222;2023-08-21T02:28:14;25.40;78.00
29345;DHT22;16339;48.748;2.222;2023-08-21T02:30:46;25.40;77.60
29345;DHT22;16339;48.748;2.222;2023-08-21T02:33:14;25.40;77.30
29345;DHT22;16339;48.748;2.222;2023-08-21T02:35:43;25.40;77.10
29345;DHT22;16339;48.748;2.222;2023-08-21T02:38:12;25.30;77.00
29345;DHT22;16339;48.748;2.222;2023-08-21T02:40:41;25.30;76.90
29345;DHT22;16339;48.748;2.222;2023-08-21T02:43:10;25.30;77.20
29345;DHT22;16339;48.748;2.222;2023-08-21T02:45:39;25.30;77.30
29345;DHT22;16339;48.748;2.222;2023-08-21T02:48:10;25.30;77.70
29345;DHT22;16339;48.748;2.222;2023-08-21T02:50:39;25.30;78.00
29345;DHT22;16339;48.748;2.222;2023-08-21T02:53:07;25.40;78.00
29345;DHT22;16339;48.748;2.222;2023-08-21T02:55:36;25.40;78.10
29345;DHT22;16339;48.748;2.222;2023-08-21T02:58:05;25.30;77.70
29345;DHT22;16339;48.748;2.222;2023-08-21T03:00:34;25.30;78.00
29345;DHT22;16339;48.748;2.222;2023-08-21T03:03:03;25.30;77.80
29345;DHT22;16339;48.748;2.222;2023-08-21T03:05:36;25.30;77.60
29345;DHT22;16339;48.748;2.222;2023-08-21T03:08:04;25.30;77.70
29345;DHT22;16339;48.748;2.222;2023-08-21T03:10:33;25.30;77.70
29345;DHT22;16339;48.748;2.222;2023-08-21T03:13:03;25.20;77.40
29345;DHT22;16339;48.748;2.222;2023-08-21T03:15:31;25.20;78.00
29345;DHT22;16339;48.748;2.222;2023-08-21T03:18:00;25.20;78.00
29345;DHT22;16339;48.748;2.222;2023-08-21T03:20:29;25.10;77.90
29345;DHT22;16339;48.748;2.222;2023-08-21T03:23:00;25.20;78.00
29345;DHT22;16339;48.748;2.222;2023-08-21T03:25:29;25.10;78.50
29345;DHT22;16339;48.748;2.222;2023-08-21T03:27:58;25.20;79.00
29345;DHT22;16339;48.748;2.222;2023-08-21T03:30:26;25.20;79.00
29345;DHT22;16339;48.748;2.222;2023-08-21T03:32:55;25.20;78.50
29345;DHT22;16339;48.748;2.222;2023-08-21T03:35:24;25.20;77.90
29345;DHT22;16339;48.748;2.222;2023-08-21T03:37:53;25.10;78.30
29345;DHT22;16339;48.748;2.222;2023-08-21T03:40:24;25.10;78.70
29345;DHT22;16339;48.748;2.222;2023-08-21T03:42:54;25.10;78.90
29345;DHT22;16339;48.748;2.222;2023-08-21T03:45:23;25.10;78.90
29345;DHT22;16339;48.748;2.222;2023-08-21T03:47:52;25.10;79.10
29345;DHT22;16339;48.748;2.222;2023-08-21T03:50:20;25.00;79.90
29345;DHT22;16339;48.748;2.222;2023-08-21T03:52:49;25.00;79.10
29345;DHT22;16339;48.748;2.222;2023-08-21T03:55:18;25.00;79.30
29345;DHT22;16339;48.748;2.222;2023-08-21T03:57:49;25.00;79.40
29345;DHT22;16339;48.748;2.222;2023-08-21T04:00:18;25.00;79.40
29345;DHT22;16339;48.748;2.222;2023-08-21T04:02:47;24.90;79.30
29345;DHT22;16339;48.748;2.222;2023-08-21T04:05:15;24.90;79.20
29345;DHT22;16339;48.748;2.222;2023-08-21T04:07:45;24.90;78.80
29345;DHT22;16339;48.748;2.222;2023-08-21T04:10:13;24.90;78.70
29345;DHT22;16339;48.748;2.222;2023-08-21T04:12:42;24.90;78.90
29345;DHT22;16339;48.748;2.222;2023-08-21T04:15:14;24.80;79.00
29345;DHT22;16339;48.748;2.222;2023-08-21T04:17:42;24.80;79.10
29345;DHT22;16339;48.748;2.222;2023-08-21T04:20:11;24.80;79.30
29345;DHT22;16339;48.748;2.222;2023-08-21T04:22:42;24.80;79.70
29345;DHT22;16339;48.748;2.222;2023-08-21T04:25:11;24.80;79.90
29345;DHT22;16339;48.748;2.222;2023-08-21T04:27:39;24.70;80.00
29345;DHT22;16339;48.748;2.222;2023-08-21T04:30:09;24.70;80.00
29345;DHT22;16339;48.748;2.222;2023-08-21T04:32:40;24.70;79.70
29345;DHT22;16339;48.748;2.222;2023-08-21T04:35:09;24.70;79.70
29345;DHT22;16339;48.748;2.222;2023-08-21T04:37:42;24.70;80.10
29345;DHT22;16339;48.748;2.222;2023-08-21T04:40:12;24.70;80.80
29345;DHT22;16339;48.748;2.222;2023-08-21T04:42:41;24.60;80.20
29345;DHT22;16339;48.748;2.222;2023-08-21T04:45:10;24.60;80.10
29345;DHT22;16339;48.748;2.222;2023-08-21T04:47:41;24.60;79.80
29345;DHT22;16339;48.748;2.222;2023-08-21T04:50:09;24.60;79.80
29345;DHT22;16339;48.748;2.222;2023-08-21T04:52:38;24.60;80.10
29345;DHT22;16339;48.748;2.222;2023-08-21T04:55:08;24.50;80.10
29345;DHT22;16339;48.748;2.222;2023-08-21T04:57:36;24.50;80.20
29345;DHT22;16339;48.748;2.222;2023-08-21T05:00:07;24.40;80.30
29345;DHT22;16339;48.748;2.222;2023-08-21T05:02:36;24.40;80.40
29345;DHT22;16339;48.748;2.222;2023-08-21T05:05:08;24.40;80.30
29345;DHT22;16339;48.748;2.222;2023-08-21T05:07:37;24.40;80.20
29345;DHT22;16339;48.748;2.222;2023-08-21T05:10:07;24.40;80.40
29345;DHT22;16339;48.748;2.222;2023-08-21T05:12:35;24.40;80.50
29345;DHT22;16339;48.748;2.222;2023-08-21T05:15:05;24.40;80.80
29345;DHT22;16339;48.748;2.222;2023-08-21T05:17:34;24.40;81.00
29345;DHT22;16339;48.748;2.222;2023-08-21T05:20:03;24.40;81.00
29345;DHT22;16339;48.748;2.222;2023-08-21T05:22:35;24.40;80.90
29345;DHT22;16339;48.748;2.222;2023-08-21T05:25:04;24.40;81.00
29345;DHT22;16339;48.748;2.222;2023-08-21T05:27:33;24.40;80.80
29345;DHT22;16339;48.748;2.222;2023-08-21T05:30:02;24.40;81.00
29345;DHT22;16339;48.748;2.222;2023-08-21T05:32:31;24.50;81.10
29345;DHT22;16339;48.748;2.222;2023-08-21T05:35:00;24.40;81.00
29345;DHT22;16339;48.748;2.222;2023-08-21T05:37:29;24.40;80.90
29345;DHT22;16339;48.748;2.222;2023-08-21T05:40:00;24.40;80.20
29345;DHT22;16339;48.748;2.222;2023-08-21T05:42:29;24.40;80.20
29345;DHT22;16339;48.748;2.222;2023-08-21T05:44:57;24.30;80.10
29345;DHT22;16339;48.748;2.222;2023-08-21T05:47:26;24.30;81.20
29345;DHT22;16339;48.748;2.222;2023-08-21T05:49:55;24.30;80.70
29345;DHT22;16339;48.748;2.222;2023-08-21T05:52:24;24.30;80.70
29345;DHT22;16339;48.748;2.222;2023-08-21T05:54:52;24.30;80.10
29345;DHT22;16339;48.748;2.222;2023-08-21T05:57:23;24.30;80.40
29345;DHT22;16339;48.748;2.222;2023-08-21T05:59:52;24.30;80.80
29345;DHT22;16339;48.748;2.222;2023-08-21T06:02:21;24.40;80.20
29345;DHT22;16339;48.748;2.222;2023-08-21T06:04:49;24.40;80.00
29345;DHT22;16339;48.748;2.222;2023-08-21T06:07:18;24.40;80.00
29345;DHT22;16339;48.748;2.222;2023-08-21T06:09:47;24.40;80.20
29345;DHT22;16339;48.748;2.222;2023-08-21T06:12:16;24.50;80.80
29345;DHT22;16339;48.748;2.222;2023-08-21T06:14:47;24.50;79.80
29345;DHT22;16339;48.748;2.222;2023-08-21T06:17:15;24.50;79.40
29345;DHT22;16339;48.748;2.222;2023-08-21T06:19:44;24.60;80.00
29345;DHT22;16339;48.748;2.222;2023-08-21T06:22:13;24.60;79.70
29345;DHT22;16339;48.748;2.222;2023-08-21T06:24:41;24.70;79.70
29345;DHT22;16339;48.748;2.222;2023-08-21T06:27:10;24.70;79.40
29345;DHT22;16339;48.748;2.222;2023-08-21T06:29:39;24.70;78.90
29345;DHT22;16339;48.748;2.222;2023-08-21T06:32:10;24.80;78.90
29345;DHT22;16339;48.748;2.222;2023-08-21T06:34:39;24.90;79.20
29345;DHT22;16339;48.748;2.222;2023-08-21T06:37:07;24.90;79.10
29345;DHT22;16339;48.748;2.222;2023-08-21T06:39:36;25.00;78.80
29345;DHT22;16339;48.748;2.222;2023-08-21T06:42:05;25.10;78.80
29345;DHT22;16339;48.748;2.222;2023-08-21T06:44:34;25.10;78.30
29345;DHT22;16339;48.748;2.222;2023-08-21T06:47:02;25.10;78.30
29345;DHT22;16339;48.748;2.222;2023-08-21T06:49:34;25.10;78.30
29345;DHT22;16339;48.748;2.222;2023-08-21T06:52:03;25.10;77.60
29345;DHT22;16339;48.748;2.222;2023-08-21T06:54:32;25.10;77.80
29345;DHT22;16339;48.748;2.222;2023-08-21T06:57:01;25.10;77.00
29345;DHT22;16339;48.748;2.222;2023-08-21T06:59:30;25.20;76.70
29345;DHT22;16339;48.748;2.222;2023-08-21T07:02:01;25.20;76.90
29345;DHT22;16339;48.748;2.222;2023-08-21T07:04:33;25.20;76.70
29345;DHT22;16339;48.748;2.222;2023-08-21T07:07:01;25.30;76.60
29345;DHT22;16339;48.748;2.222;2023-08-21T07:09:30;25.40;76.30
29345;DHT22;16339;48.748;2.222;2023-08-21T07:11:59;25.40;75.80
29345;DHT22;16339;48.748;2.222;2023-08-21T07:14:28;25.40;75.60
29345;DHT22;16339;48.748;2.222;2023-08-21T07:16:57;25.50;75.30
29345;DHT22;16339;48.748;2.222;2023-08-21T07:19:26;25.40;75.20
29345;DHT22;16339;48.748;2.222;2023-08-21T07:21:57;25.50;75.00
29345;DHT22;16339;48.748;2.222;2023-08-21T07:24:26;25.50;74.40
29345;DHT22;16339;48.748;2.222;2023-08-21T07:26:54;25.50;74.40
29345;DHT22;16339;48.748;2.222;2023-08-21T07:29:23;25.50;74.60
29345;DHT22;16339;48.748;2.222;2023-08-21T07:31:52;25.50;74.10
29345;DHT22;16339;48.748;2.222;2023-08-21T07:34:21;25.50;74.40
29345;DHT22;16339;48.748;2.222;2023-08-21T07:36:53;25.50;74.60
29345;DHT22;16339;48.748;2.222;2023-08-21T07:39:32;25.60;75.20
29345;DHT22;16339;48.748;2.222;2023-08-21T07:42:01;25.60;75.00
29345;DHT22;16339;48.748;2.222;2023-08-21T07:44:30;25.60;73.90
29345;DHT22;16339;48.748;2.222;2023-08-21T07:46:58;25.60;74.50
29345;DHT22;16339;48.748;2.222;2023-08-21T07:49:31;25.60;74.50
29345;DHT22;16339;48.748;2.222;2023-08-21T07:51:59;25.50;74.40
29345;DHT22;16339;48.748;2.222;2023-08-21T07:54:35;25.50;74.70
29345;DHT22;16339;48.748;2.222;2023-08-21T07:57:04;25.50;74.40
29345;DHT22;16339;48.748;2.222;2023-08-21T07:59:33;25.50;74.40
29345;DHT22;16339;48.748;2.222;2023-08-21T08:02:04;25.50;74.40
29345;DHT22;16339;48.748;2.222;2023-08-21T08:04:32;25.40;73.90
29345;DHT22;16339;48.748;2.222;2023-08-21T08:07:02;25.40;74.60
29345;DHT22;16339;48.748;2.222;2023-08-21T08:09:34;25.50;74.90
29345;DHT22;16339;48.748;2.222;2023-08-21T08:12:03;25.50;74.40
29345;DHT22;16339;48.748;2.222;2023-08-21T08:14:32;25.60;74.40
29345;DHT22;16339;48.748;2.222;2023-08-21T08:17:01;25.60;74.20
29345;DHT22;16339;48.748;2.222;2023-08-21T08:19:30;25.70;74.10
29345;DHT22;16339;48.748;2.222;2023-08-21T08:21:58;25.70;74.30
29345;DHT22;16339;48.748;2.222;2023-08-21T08:24:27;25.80;74.40
29345;DHT22;16339;48.748;2.222;2023-08-21T08:26:58;25.90;74.00
29345;DHT22;16339;48.748;2.222;2023-08-21T08:29:27;25.90;74.20
29345;DHT22;16339;48.748;2.222;2023-08-21T08:31:56;25.90;73.40
29345;DHT22;16339;48.748;2.222;2023-08-21T08:34:25;26.00;73.50
29345;DHT22;16339;48.748;2.222;2023-08-21T08:36:53;25.90;73.50
29345;DHT22;16339;48.748;2.222;2023-08-21T08:39:22;26.00;73.60
29345;DHT22;16339;48.748;2.222;2023-08-21T08:41:56;26.10;73.50
29345;DHT22;16339;48.748;2.222;2023-08-21T08:44:30;26.10;73.20
29345;DHT22;16339;48.748;2.222;2023-08-21T08:46:59;26.20;73.30
29345;DHT22;16339;48.748;2.222;2023-08-21T08:49:29;26.20;73.50
29345;DHT22;16339;48.748;2.222;2023-08-21T08:52:00;26.30;72.80
29345;DHT22;16339;48.748;2.222;2023-08-21T08:54:30;26.20;72.70
29345;DHT22;16339;48.748;2.222;2023-08-21T08:56:59;26.10;71.90
29345;DHT22;16339;48.748;2.222;2023-08-21T08:59:33;26.10;72.30
29345;DHT22;16339;48.748;2.222;2023-08-21T09:02:01;26.10;72.60
29345;DHT22;16339;48.748;2.222;2023-08-21T09:04:31;26.20;73.00
29345;DHT22;16339;48.748;2.222;2023-08-21T09:07:08;26.20;72.60
29345;DHT22;16339;48.748;2.222;2023-08-21T09:09:38;26.10;71.70
29345;DHT22;16339;48.748;2.222;2023-08-21T09:12:10;26.20;72.40
29345;DHT22;16339;48.748;2.222;2023-08-21T09:14:42;26.20;72.80
29345;DHT22;16339;48.748;2.222;2023-08-21T09:17:12;26.20;72.40
29345;DHT22;16339;48.748;2.222;2023-08-21T09:19:41;26.20;72.60
29345;DHT22;16339;48.748;2.222;2023-08-21T09:22:14;26.30;72.20
29345;DHT22;16339;48.748;2.222;2023-08-21T09:25:01;26.10;72.30
29345;DHT22;16339;48.748;2.222;2023-08-21T09:27:32;26.10;72.70
29345;DHT22;16339;48.748;2.222;2023-08-21T09:30:04;26.10;72.20
29345;DHT22;16339;48.748;2.222;2023-08-21T09:32:52;26.20;72.30
29345;DHT22;16339;48.748;2.222;2023-08-21T09:35:21;26.10;72.00
29345;DHT22;16339;48.748;2.222;2023-08-21T09:37:50;26.10;71.50
29345;DHT22;16339;48.748;2.222;2023-08-21T09:40:20;26.20;72.10
29345;DHT22;16339;48.748;2.222;2023-08-21T09:42:52;26.20;71.50
29345;DHT22;16339;48.748;2.222;2023-08-21T09:45:25;26.20;71.10
29345;DHT22;16339;48.748;2.222;2023-08-21T09:47:54;26.30;71.60
29345;DHT22;16339;48.748;2.222;2023-08-21T09:50:23;26.30;71.80
29345;DHT22;16339;48.748;2.222;2023-08-21T09:52:52;26.40;71.60
29345;DHT22;16339;48.748;2.222;2023-08-21T09:55:21;26.30;71.30
29345;DHT22;16339;48.748;2.222;2023-08-21T09:57:53;26.20;71.20
29345;DHT22;16339;48.748;2.222;2023-08-21T10:00:30;26.20;71.10
29345;DHT22;16339;48.748;2.222;2023-08-21T10:03:01;26.30;71.60
29345;DHT22;16339;48.748;2.222;2023-08-21T10:05:32;26.40;71.50
29345;DHT22;16339;48.748;2.222;2023-08-21T10:08:02;26.40;71.10
29345;DHT22;16339;48.748;2.222;2023-08-21T10:10:31;26.20;69.80
29345;DHT22;16339;48.748;2.222;2023-08-21T10:13:08;26.30;70.60
29345;DHT22;16339;48.748;2.222;2023-08-21T10:15:41;26.40;70.40
29345;DHT22;16339;48.748;2.222;2023-08-21T10:18:22;26.50;70.20
29345;DHT22;16339;48.748;2.222;2023-08-21T10:20:52;26.60;70.20
29345;DHT22;16339;48.748;2.222;2023-08-21T10:23:27;26.70;69.40
29345;DHT22;16339;48.748;2.222;2023-08-21T10:25:59;26.70;68.90
29345;DHT22;16339;48.748;2.222;2023-08-21T10:28:42;26.80;68.50
29345;DHT22;16339;48.748;2.222;2023-08-21T10:31:39;26.80;68.50
29345;DHT22;16339;48.748;2.222;2023-08-21T10:34:14;26.90;68.90
29345;DHT22;16339;48.748;2.222;2023-08-21T10:37:11;26.90;67.80
29345;DHT22;16339;48.748;2.222;2023-08-21T10:39:58;26.90;68.00
29345;DHT22;16339;48.748;2.222;2023-08-21T10:42:56;26.90;68.50
29345;DHT22;16339;48.748;2.222;2023-08-21T10:49:18;27.10;67.80
29345;DHT22;16339;48.748;2.222;2023-08-21T10:52:26;27.10;67.10
29345;DHT22;16339;48.748;2.222;2023-08-21T10:55:07;27.10;67.20
29345;DHT22;16339;48.748;2.222;2023-08-21T10:57:40;27.10;67.50
29345;DHT22;16339;48.748;2.222;2023-08-21T11:00:13;27.10;68.30
29345;DHT22;16339;48.748;2.222;2023-08-21T11:02:44;27.10;64.70
29345;DHT22;16339;48.748;2.222;2023-08-21T11:05:25;27.20;64.70
29345;DHT22;16339;48.748;2.222;2023-08-21T11:07:53;27.20;65.40
29345;DHT22;16339;48.748;2.222;2023-08-21T11:10:29;27.30;65.30
29345;DHT22;16339;48.748;2.222;2023-08-21T11:13:06;27.40;65.70
29345;DHT22;16339;48.748;2.222;2023-08-21T11:16:05;27.40;65.80
29345;DHT22;16339;48.748;2.222;2023-08-21T11:18:52;27.50;64.70
29345;DHT22;16339;48.748;2.222;2023-08-21T11:21:24;27.50;65.10
29345;DHT22;16339;48.748;2.222;2023-08-21T11:23:54;27.60;65.50
29345;DHT22;16339;48.748;2.222;2023-08-21T11:26:27;27.70;64.70
29345;DHT22;16339;48.748;2.222;2023-08-21T11:28:56;27.70;64.70
29345;DHT22;16339;48.748;2.222;2023-08-21T11:31:28;27.80;63.80
29345;DHT22;16339;48.748;2.222;2023-08-21T11:33:57;27.70;64.10
29345;DHT22;16339;48.748;2.222;2023-08-21T11:36:28;27.70;64.80
29345;DHT22;16339;48.748;2.222;2023-08-21T11:39:01;27.80;65.20
29345;DHT22;16339;48.748;2.222;2023-08-21T11:41:31;27.90;65.50
29345;DHT22;16339;48.748;2.222;2023-08-21T11:44:02;28.00;65.50
29345;DHT22;16339;48.748;2.222;2023-08-21T11:46:38;28.10;64.30
29345;DHT22;16339;48.748;2.222;2023-08-21T11:49:07;28.20;64.10
29345;DHT22;16339;48.748;2.222;2023-08-21T11:51:41;28.20;64.40
29345;DHT22;16339;48.748;2.222;2023-08-21T11:54:09;28.20;65.50
29345;DHT22;16339;48.748;2.222;2023-08-21T11:56:39;28.30;66.00
29345;DHT22;16339;48.748;2.222;2023-08-21T11:59:08;28.40;64.20
29345;DHT22;16339;48.748;2.222;2023-08-21T12:01:38;28.40;64.60
29345;DHT22;16339;48.748;2.222;2023-08-21T12:04:14;28.40;63.10
29345;DHT22;16339;48.748;2.222;2023-08-21T12:06:46;28.40;62.70
29345;DHT22;16339;48.748;2.222;2023-08-21T12:09:15;28.50;63.00
29345;DHT22;16339;48.748;2.222;2023-08-21T12:11:44;28.50;63.80
29345;DHT22;16339;48.748;2.222;2023-08-21T12:14:13;28.50;63.80
29345;DHT22;16339;48.748;2.222;2023-08-21T12:16:43;28.60;62.80
29345;DHT22;16339;48.748;2.222;2023-08-21T12:19:12;28.60;63.30
29345;DHT22;16339;48.748;2.222;2023-08-21T12:21:41;28.70;63.00
29345;DHT22;16339;48.748;2.222;2023-08-21T12:24:12;28.70;63.00
29345;DHT22;16339;48.748;2.222;2023-08-21T12:26:41;28.80;62.50
29345;DHT22;16339;48.748;2.222;2023-08-21T12:29:10;28.80;62.40
29345;DHT22;16339;48.748;2.222;2023-08-21T12:31:41;28.80;62.50
29345;DHT22;16339;48.748;2.222;2023-08-21T12:34:13;28.90;62.40
29345;DHT22;16339;48.748;2.222;2023-08-21T12:36:45;28.70;61.60
29345;DHT22;16339;48.748;2.222;2023-08-21T12:39:16;28.70;62.60
29345;DHT22;16339;48.748;2.222;2023-08-21T12:41:46;28.80;63.50
29345;DHT22;16339;48.748;2.222;2023-08-21T12:47:32;29.00;63.00
29345;DHT22;16339;48.748;2.222;2023-08-21T12:50:20;29.10;64.50
29345;DHT22;16339;48.748;2.222;2023-08-21T12:52:51;29.30;65.10
29345;DHT22;16339;48.748;2.222;2023-08-21T12:55:31;29.40;64.10
29345;DHT22;16339;48.748;2.222;2023-08-21T12:58:00;29.50;63.60
29345;DHT22;16339;48.748;2.222;2023-08-21T13:00:29;29.60;62.90
29345;DHT22;16339;48.748;2.222;2023-08-21T13:03:12;29.70;62.30
29345;DHT22;16339;48.748;2.222;2023-08-21T13:09:20;29.80;62.20
29345;DHT22;16339;48.748;2.222;2023-08-21T13:15:14;29.90;60.90
29345;DHT22;16339;48.748;2.222;2023-08-21T13:17:43;29.80;59.60
29345;DHT22;16339;48.748;2.222;2023-08-21T13:20:12;29.80;59.50
29345;DHT22;16339;48.748;2.222;2023-08-21T13:22:47;29.80;59.70
29345;DHT22;16339;48.748;2.222;2023-08-21T13:25:23;29.90;60.60
29345;DHT22;16339;48.748;2.222;2023-08-21T13:31:13;30.00;60.60
29345;DHT22;16339;48.748;2.222;2023-08-21T13:33:44;30.10;60.30
29345;DHT22;16339;48.748;2.222;2023-08-21T13:36:14;30.10;61.20
29345;DHT22;16339;48.748;2.222;2023-08-21T13:38:44;30.20;60.50
29345;DHT22;16339;48.748;2.222;2023-08-21T13:41:51;30.30;59.70
29345;DHT22;16339;48.748;2.222;2023-08-21T13:44:21;30.40;60.40
29345;DHT22;16339;48.748;2.222;2023-08-21T13:46:52;30.40;60.00
29345;DHT22;16339;48.748;2.222;2023-08-21T13:49:45;30.50;59.90
29345;DHT22;16339;48.748;2.222;2023-08-21T13:54:52;30.60;60.00
29345;DHT22;16339;48.748;2.222;2023-08-21T13:55:56;30.60;60.60
29345;DHT22;16339;48.748;2.222;2023-08-21T13:58:42;30.70;59.00
29345;DHT22;16339;48.748;2.222;2023-08-21T14:01:46;30.70;58.50
29345;DHT22;16339;48.748;2.222;2023-08-21T14:04:38;30.80;59.40
29345;DHT22;16339;48.748;2.222;2023-08-21T14:10:48;30.80;59.30
29345;DHT22;16339;48.748;2.222;2023-08-21T14:16:57;30.90;58.60
29345;DHT22;16339;48.748;2.222;2023-08-21T14:23:12;31.00;57.70
29345;DHT22;16339;48.748;2.222;2023-08-21T14:29:31;30.90;59.20
29345;DHT22;16339;48.748;2.222;2023-08-21T14:32:46;31.00;59.10
29345;DHT22;16339;48.748;2.222;2023-08-21T14:35:13;31.00;58.70
29345;DHT22;16339;48.748;2.222;2023-08-21T14:54:24;31.20;59.50
29345;DHT22;16339;48.748;2.222;2023-08-21T14:56:53;31.30;58.60
29345;DHT22;16339;48.748;2.222;2023-08-21T14:59:25;31.30;58.70
29345;DHT22;16339;48.748;2.222;2023-08-21T15:08:37;31.40;58.20
29345;DHT22;16339;48.748;2.222;2023-08-21T15:11:46;31.30;57.90
29345;DHT22;16339;48.748;2.222;2023-08-21T15:17:48;31.30;58.00
29345;DHT22;16339;48.748;2.222;2023-08-21T15:23:44;31.30;57.90
29345;DHT22;16339;48.748;2.222;2023-08-21T15:26:27;31.20;58.50
29345;DHT22;16339;48.748;2.222;2023-08-21T15:29:00;31.20;58.20
29345;DHT22;16339;48.748;2.222;2023-08-21T15:31:36;31.30;58.60
29345;DHT22;16339;48.748;2.222;2023-08-21T15:34:17;31.30;58.60
29345;DHT22;16339;48.748;2.222;2023-08-21T15:37:19;31.30;57.90
29345;DHT22;16339;48.748;2.222;2023-08-21T15:40:00;31.40;58.00
29345;DHT22;16339;48.748;2.222;2023-08-21T15:42:29;31.40;57.70
29345;DHT22;16339;48.748;2.222;2023-08-21T15:45:00;31.40;58.50
29345;DHT22;16339;48.748;2.222;2023-08-21T15:47:29;31.40;58.60
29345;DHT22;16339;48.748;2.222;2023-08-21T15:50:27;31.40;57.90
29345;DHT22;16339;48.748;2.222;2023-08-21T15:59:22;31.60;57.40
29345;DHT22;16339;48.748;2.222;2023-08-21T16:01:53;31.70;57.20
29345;DHT22;16339;48.748;2.222;2023-08-21T16:19:14;33.60;54.30
29345;DHT22;16339;48.748;2.222;2023-08-21T16:22:07;34.70;53.10
29345;DHT22;16339;48.748;2.222;2023-08-21T16:24:36;35.80;51.50
29345;DHT22;16339;48.748;2.222;2023-08-21T16:27:05;36.90;50.70
29345;DHT22;16339;48.748;2.222;2023-08-21T16:29:36;38.00;50.00
29345;DHT22;16339;48.748;2.222;2023-08-21T16:32:06;38.90;48.10
29345;DHT22;16339;48.748;2.222;2023-08-21T16:34:38;39.80;47.60
29345;DHT22;16339;48.748;2.222;2023-08-21T19:35:46;28.20;68.60
29345;DHT22;16339;48.748;2.222;2023-08-21T19:38:25;28.20;68.90
29345;DHT22;16339;48.748;2.222;2023-08-21T19:40:56;28.10;68.50
29345;DHT22;16339;48.748;2.222;2023-08-21T19:43:36;28.20;68.60
29345;DHT22;16339;48.748;2.222;2023-08-21T19:46:06;28.10;69.00
29345;DHT22;16339;48.748;2.222;2023-08-21T19:48:45;28.10;69.40
29345;DHT22;16339;48.748;2.222;2023-08-21T19:51:27;28.10;70.00
29345;DHT22;16339;48.748;2.222;2023-08-21T19:54:01;28.10;69.90
29345;DHT22;16339;48.748;2.222;2023-08-21T19:56:32;28.10;69.10
29345;DHT22;16339;48.748;2.222;2023-08-21T19:59:05;28.00;68.20
29345;DHT22;16339;48.748;2.222;2023-08-21T20:01:39;27.90;69.70
29345;DHT22;16339;48.748;2.222;2023-08-21T20:04:08;27.80;69.30
29345;DHT22;16339;48.748;2.222;2023-08-21T20:06:39;27.80;69.70
29345;DHT22;16339;48.748;2.222;2023-08-21T20:09:08;27.80;69.60
29345;DHT22;16339;48.748;2.222;2023-08-21T20:11:40;27.80;69.70
29345;DHT22;16339;48.748;2.222;2023-08-21T20:14:11;27.80;69.50
29345;DHT22;16339;48.748;2.222;2023-08-21T20:16:47;27.80;69.30
29345;DHT22;16339;48.748;2.222;2023-08-21T20:19:19;27.70;69.70
29345;DHT22;16339;48.748;2.222;2023-08-21T20:21:50;27.70;69.40